createdAt,value
2022-11-04T00:01:50.892Z,95674.72
2022-11-04T00:04:22.216Z,95677.63
2022-11-04T00:06:50.463Z,95674.16
2022-11-04T00:09:20.095Z,95681.38
2022-11-04T00:12:06.022Z,95683.31
2022-11-04T00:14:34.843Z,95684.44
2022-11-04T00:17:22.076Z,95691.09
2022-11-04T00:20:10.348Z,95691.09
2022-11-04T00:22:56.950Z,95694.56
2022-11-04T00:25:42.290Z,95695.41
2022-11-04T00:28:31.456Z,95686.66
2022-11-04T00:31:22.076Z,95693.75
2022-11-04T00:33:50.466Z,95691.81
2022-11-04T00:36:19.767Z,95686.94
2022-11-04T00:38:47.958Z,95691.22
2022-11-04T00:41:28.345Z,95689.28
2022-11-04T00:43:58.285Z,95690.28
2022-11-04T00:46:27.470Z,95703.31
2022-11-04T00:48:55.814Z,95696.09
2022-11-04T00:51:25.339Z,95702.66
2022-11-04T00:53:53.792Z,95701.78
2022-11-04T00:56:21.808Z,95700.00
2022-11-04T00:58:50.273Z,95700.00
2022-11-04T01:01:19.618Z,95708.06
2022-11-04T01:03:49.806Z,95699.44
2022-11-04T01:06:17.942Z,95710.00
2022-11-04T01:08:47.431Z,95705.56
2022-11-04T01:11:16.244Z,95700.44
2022-11-04T01:13:44.244Z,95705.84
2022-11-04T01:16:13.746Z,95716.28
2022-11-04T01:18:42.573Z,95716.69
2022-11-04T01:21:13.597Z,95713.34
2022-11-04T01:23:42.975Z,95716.81
2022-11-04T01:26:14.587Z,95715.16
2022-11-04T01:28:42.604Z,95723.09
2022-11-04T01:31:12.763Z,95726.69
2022-11-04T01:33:41.549Z,95727.66
2022-11-04T01:36:10.913Z,95725.16
2022-11-04T01:38:39.378Z,95720.00
2022-11-04T01:41:10.031Z,95720.69
2022-11-04T01:43:51.421Z,95716.81
2022-11-04T01:46:28.881Z,95721.41
2022-11-04T01:49:02.695Z,95721.81
2022-11-04T01:51:34.714Z,95715.44
2022-11-04T01:54:04.537Z,95720.28
2022-11-04T01:56:34.234Z,95712.25
2022-11-04T01:59:08.496Z,95716.00
2022-11-04T02:01:37.787Z,95709.75
2022-11-04T02:04:20.786Z,95697.66
2022-11-04T02:06:49.813Z,95709.03
2022-11-04T02:09:19.565Z,95697.25
2022-11-04T02:12:16.558Z,95712.50
2022-11-04T02:14:47.816Z,95709.16
2022-11-04T02:17:28.126Z,95710.16
2022-11-04T02:20:11.955Z,95714.63
2022-11-04T02:23:01.445Z,95712.78
2022-11-04T02:25:57.747Z,95716.84
2022-11-04T02:28:52.740Z,95713.91
2022-11-04T02:31:30.420Z,95705.59
2022-11-04T02:34:05.983Z,95690.59
2022-11-04T02:36:41.734Z,95690.88
2022-11-04T02:39:24.025Z,95691.00
2022-11-04T02:41:58.444Z,95691.13
2022-11-04T02:44:34.411Z,95703.50
2022-11-04T02:47:07.632Z,95699.44
2022-11-04T02:49:42.721Z,95707.25
2022-11-04T02:52:13.507Z,95700.16
2022-11-04T02:54:47.945Z,95689.75
2022-11-04T02:57:20.990Z,95689.47
2022-11-04T02:59:54.714Z,95695.56
2022-11-04T03:02:29.478Z,95694.88
2022-11-04T03:05:00.172Z,95681.97
2022-11-04T03:07:33.166Z,95662.13
2022-11-04T03:10:05.808Z,95684.19
2022-11-04T03:12:41.345Z,95687.09
2022-11-04T03:15:16.001Z,95685.72
2022-11-04T03:17:59.176Z,95689.31
2022-11-04T03:20:29.531Z,95707.75
2022-11-04T03:22:59.851Z,95693.16
2022-11-04T03:25:33.426Z,95701.09
2022-11-04T03:28:06.195Z,95704.69
2022-11-04T03:30:40.306Z,95712.59
2022-11-04T03:33:19.220Z,95708.56
2022-11-04T03:35:47.234Z,95718.56
2022-11-04T03:38:15.230Z,95724.09
2022-11-04T03:40:43.429Z,95723.25
2022-11-04T03:43:15.975Z,95730.63
2022-11-04T03:45:44.790Z,95734.31
2022-11-04T03:48:14.242Z,95747.78
2022-11-04T03:50:44.282Z,95749.88
2022-11-04T03:53:14.396Z,95743.75
2022-11-04T03:55:53.086Z,95742.09
2022-11-04T03:58:33.854Z,95744.84
2022-11-04T04:01:14.908Z,95757.19
2022-11-04T04:03:53.075Z,95750.25
2022-11-04T04:06:26.380Z,95753.16
2022-11-04T04:08:56.376Z,95749.56
2022-11-04T04:11:33.809Z,95754.94
2022-11-04T04:14:07.094Z,95747.88
2022-11-04T04:16:38.569Z,95740.25
2022-11-04T04:19:12.946Z,95750.91
2022-11-04T04:21:46.405Z,95736.47
2022-11-04T04:24:36.673Z,95737.47
2022-11-04T04:27:22.421Z,95743.13
2022-11-04T04:29:53.300Z,95744.19
2022-11-04T04:32:24.096Z,95754.72
2022-11-04T04:35:14.574Z,95764.28
2022-11-04T04:37:45.601Z,95758.78
2022-11-04T04:40:36.165Z,95762.25
2022-11-04T04:43:18.349Z,95765.03
2022-11-04T04:45:55.127Z,95758.94
2022-11-04T04:48:23.580Z,95759.84
2022-11-04T04:50:59.014Z,95748.22
2022-11-04T04:53:27.138Z,95728.38
2022-11-04T04:55:55.150Z,95723.13
2022-11-04T04:58:23.085Z,95705.91
2022-11-04T05:00:51.333Z,95697.28
2022-11-04T05:03:19.558Z,95694.53
2022-11-04T05:05:47.471Z,95682.31
2022-11-04T05:08:16.692Z,95664.03
2022-11-04T05:10:44.704Z,95662.63
2022-11-04T05:13:30.738Z,95657.47
2022-11-04T05:16:03.820Z,95657.88
2022-11-04T05:18:31.952Z,95658.03
2022-11-04T05:20:59.878Z,95655.63
2022-11-04T05:23:29.150Z,95662.28
2022-11-04T05:25:59.541Z,95666.84
2022-11-04T05:28:27.535Z,95682.75
2022-11-04T05:30:55.558Z,95698.84
2022-11-04T05:33:23.788Z,95697.03
2022-11-04T05:35:51.745Z,95700.63
2022-11-04T05:38:19.780Z,95705.06
2022-11-04T05:40:50.758Z,95709.75
2022-11-04T05:43:18.787Z,95701.84
2022-11-04T05:45:47.454Z,95710.84
2022-11-04T05:48:15.370Z,95708.47
2022-11-04T05:50:43.493Z,95715.66
2022-11-04T05:53:11.813Z,95723.69
2022-11-04T05:55:40.014Z,95713.16
2022-11-04T05:58:09.797Z,95704.31
2022-11-04T06:00:39.280Z,95707.50
2022-11-04T06:03:10.689Z,95696.16
2022-11-04T06:05:42.150Z,95684.09
2022-11-04T06:08:10.392Z,95680.22
2022-11-04T06:10:39.036Z,95680.34
2022-11-04T06:13:07.269Z,95677.72
2022-11-04T06:15:36.947Z,95680.47
2022-11-04T06:18:04.947Z,95689.47
2022-11-04T06:20:33.160Z,95692.09
2022-11-04T06:23:01.096Z,95696.66
2022-11-04T06:25:31.383Z,95706.19
2022-11-04T06:27:59.541Z,95717.28
2022-11-04T06:30:28.383Z,95727.25
2022-11-04T06:32:57.636Z,95731.53
2022-11-04T06:35:25.628Z,95723.63
2022-11-04T06:37:56.111Z,95733.06
2022-11-04T06:40:24.151Z,95738.31
2022-11-04T06:42:52.106Z,95737.78
2022-11-04T06:45:20.079Z,95749.63
2022-11-04T06:47:47.961Z,95752.47
2022-11-04T06:50:17.150Z,95751.75
2022-11-04T06:52:45.193Z,95758.28
2022-11-04T06:55:13.051Z,95757.59
2022-11-04T06:57:41.089Z,95761.63
2022-11-04T07:00:10.261Z,95747.38
2022-11-04T07:02:39.076Z,95752.91
2022-11-04T07:05:08.129Z,95745.44
2022-11-04T07:07:37.828Z,95746.16
2022-11-04T07:10:06.762Z,95740.75
2022-11-04T07:12:34.807Z,95739.81
2022-11-04T07:15:02.932Z,95737.06
2022-11-04T07:17:30.799Z,95731.63
2022-11-04T07:19:58.792Z,95726.25
2022-11-04T07:22:27.102Z,95722.66
2022-11-04T07:24:57.031Z,95721.69
2022-11-04T07:27:25.090Z,95724.19
2022-11-04T07:29:52.998Z,95721.03
2022-11-04T07:32:20.931Z,95724.38
2022-11-04T07:34:49.196Z,95724.09
2022-11-04T07:37:17.368Z,95721.06
2022-11-04T07:39:45.359Z,95710.44
2022-11-04T07:42:14.647Z,95714.59
2022-11-04T07:44:42.905Z,95708.22
2022-11-04T07:47:10.805Z,95713.91
2022-11-04T07:49:38.732Z,95712.97
2022-11-04T07:52:06.899Z,95708.38
2022-11-04T07:54:34.868Z,95708.25
2022-11-04T07:57:03.646Z,95706.09
2022-11-04T07:59:33.756Z,95705.84
2022-11-04T08:02:01.849Z,95708.19
2022-11-04T08:04:30.223Z,95701.13
2022-11-04T08:06:58.140Z,95690.72
2022-11-04T08:09:26.369Z,95687.94
2022-11-04T08:11:54.379Z,95687.56
2022-11-04T08:14:22.707Z,95685.50
2022-11-04T08:16:52.878Z,95681.75
2022-11-04T08:19:20.789Z,95676.91
2022-11-04T08:21:49.231Z,95681.91
2022-11-04T08:24:17.288Z,95680.38
2022-11-04T08:26:46.305Z,95689.81
2022-11-04T08:29:15.886Z,95699.25
2022-11-04T08:31:43.861Z,95703.56
2022-11-04T08:34:14.690Z,95693.56
2022-11-04T08:36:42.993Z,95691.94
2022-11-04T08:39:11.523Z,95695.25
2022-11-04T08:41:41.994Z,95688.47
2022-11-04T08:44:10.297Z,95694.69
2022-11-04T08:46:40.944Z,95698.19
2022-11-04T08:49:12.007Z,95696.81
2022-11-04T08:51:47.083Z,95697.63
2022-11-04T08:54:17.205Z,95702.66
2022-11-04T08:56:45.202Z,95710.81
2022-11-04T08:59:14.999Z,95713.22
2022-11-04T09:01:44.828Z,95721.66
2022-11-04T09:04:13.804Z,95721.53
2022-11-04T09:06:46.197Z,95721.94
2022-11-04T09:09:16.567Z,95722.66
2022-11-04T09:11:45.954Z,95730.44
2022-11-04T09:14:14.135Z,95733.50
2022-11-04T09:16:43.106Z,95731.38
2022-11-04T09:19:11.351Z,95735.72
2022-11-04T09:21:39.321Z,95743.63
2022-11-04T09:24:08.959Z,95744.03
2022-11-04T09:26:36.974Z,95736.97
2022-11-04T09:29:06.830Z,95735.84
2022-11-04T09:31:34.817Z,95736.41
2022-11-04T09:34:02.710Z,95747.22
2022-11-04T09:36:30.677Z,95737.78
2022-11-04T09:38:58.858Z,95743.91
2022-11-04T09:41:49.634Z,95747.91
2022-11-04T09:44:24.195Z,95742.66
2022-11-04T09:46:55.706Z,95743.22
2022-11-04T09:49:26.143Z,95740.28
2022-11-04T09:51:56.537Z,95738.34
2022-11-04T09:54:26.091Z,95737.09
2022-11-04T09:56:58.976Z,95729.19
2022-11-04T09:59:29.961Z,95724.88
2022-11-04T10:02:21.906Z,95724.28
2022-11-04T10:04:58.337Z,95720.28
2022-11-04T10:07:43.366Z,95717.88
2022-11-04T10:10:15.956Z,95718.03
2022-11-04T10:13:04.634Z,95717.72
2022-11-04T10:15:48.818Z,95713.97
2022-11-04T10:18:31.099Z,95704.78
2022-11-04T10:21:07.980Z,95707.72
2022-11-04T10:23:44.330Z,95705.47
2022-11-04T10:26:17.921Z,95705.47
2022-11-04T10:28:50.997Z,95696.97
2022-11-04T10:31:20.628Z,95696.28
2022-11-04T10:33:51.384Z,95700.13
2022-11-04T10:36:19.374Z,95693.63
2022-11-04T10:38:51.197Z,95693.63
2022-11-04T10:41:27.588Z,95694.84
2022-11-04T10:44:02.994Z,95689.56
2022-11-04T10:46:47.673Z,95706.09
2022-11-04T10:49:55.016Z,95699.56
2022-11-04T10:52:34.801Z,95699.25
2022-11-04T10:55:03.009Z,95698.88
2022-11-04T10:57:31.117Z,95689.00
2022-11-04T11:00:02.762Z,95700.09
2022-11-04T11:02:47.117Z,95689.38
2022-11-04T11:05:25.821Z,95688.81
2022-11-04T11:07:56.506Z,95688.50
2022-11-04T11:10:26.768Z,95687.50
2022-11-04T11:12:56.795Z,95686.13
2022-11-04T11:15:32.793Z,95679.16
2022-11-04T11:18:16.654Z,95680.38
2022-11-04T11:20:50.619Z,95683.41
2022-11-04T11:23:36.217Z,95684.00
2022-11-04T11:26:05.487Z,95681.06
2022-11-04T11:28:38.136Z,95680.16
2022-11-04T11:31:14.948Z,95681.06
2022-11-04T11:33:49.512Z,95673.81
2022-11-04T11:36:20.935Z,95669.19
2022-11-04T11:38:59.160Z,95660.69
2022-11-04T11:41:31.846Z,95655.41
2022-11-04T11:44:03.729Z,95643.69
2022-11-04T11:46:35.267Z,95652.16
2022-11-04T11:49:05.450Z,95653.81
2022-11-04T11:51:35.814Z,95651.56
2022-11-04T11:54:24.825Z,95646.13
2022-11-04T12:02:51.854Z,95661.16
2022-11-04T12:11:27.460Z,95654.28
2022-11-04T12:13:58.976Z,95659.13
2022-11-04T12:16:37.365Z,95652.47
2022-11-04T12:19:37.883Z,95650.34
2022-11-04T12:22:18.483Z,95654.38
2022-11-04T12:24:56.182Z,95650.44
2022-11-04T12:27:34.638Z,95647.47
2022-11-04T12:30:10.372Z,95650.66
2022-11-04T12:32:57.387Z,95643.94
2022-11-04T12:35:37.970Z,95660.03
2022-11-04T12:38:23.594Z,95656.56
2022-11-04T12:41:27.766Z,95653.59
2022-11-04T12:43:55.948Z,95653.38
2022-11-04T12:46:33.560Z,95654.88
2022-11-04T12:49:21.551Z,95663.28
2022-11-04T12:51:57.245Z,95660.94
2022-11-04T12:54:46.503Z,95652.31
2022-11-04T12:57:27.305Z,95650.81
2022-11-04T13:00:06.372Z,95655.09
2022-11-04T13:02:41.206Z,95667.69
2022-11-04T13:05:24.397Z,95672.44
2022-11-04T13:07:58.913Z,95693.19
2022-11-04T13:10:39.221Z,95694.94
2022-11-04T13:13:09.932Z,95695.25
2022-11-04T13:15:46.070Z,95698.47
2022-11-04T13:18:18.959Z,95702.25
2022-11-04T13:20:51.600Z,95695.63
2022-11-04T13:23:25.982Z,95698.16
2022-11-04T13:25:59.510Z,95703.03
2022-11-04T13:28:27.852Z,95705.41
2022-11-04T13:31:03.903Z,95701.53
2022-11-04T13:33:44.978Z,95706.97
2022-11-04T13:36:29.339Z,95708.34
2022-11-04T13:39:01.361Z,95707.06
2022-11-04T13:41:51.945Z,95702.50
2022-11-04T13:44:26.043Z,95706.13
2022-11-04T13:46:58.509Z,95713.34
2022-11-04T13:49:32.520Z,95711.38
2022-11-04T13:52:10.229Z,95727.38
2022-11-04T13:54:41.862Z,95736.66
2022-11-04T13:57:15.907Z,95745.56
2022-11-04T14:00:04.481Z,95752.66
2022-11-04T14:02:41.278Z,95755.84
2022-11-04T14:05:47.169Z,95766.69
2022-11-04T14:08:16.804Z,95759.28
2022-11-04T14:10:58.294Z,95762.22
2022-11-04T14:14:16.178Z,95761.38
2022-11-04T14:16:45.853Z,95761.91
2022-11-04T14:19:59.427Z,95744.69
2022-11-04T14:22:48.990Z,95741.63
2022-11-04T14:25:24.583Z,95738.88
2022-11-04T14:27:54.347Z,95732.31
2022-11-04T14:30:37.746Z,95731.09
2022-11-04T14:33:09.819Z,95741.63
2022-11-04T14:35:38.018Z,95741.34
2022-11-04T14:38:21.124Z,95748.03
2022-11-04T14:40:52.365Z,95744.69
2022-11-04T14:43:35.167Z,95748.03
2022-11-04T14:46:04.763Z,95746.50
2022-11-04T14:48:33.155Z,95751.50
2022-11-04T14:51:01.371Z,95749.97
2022-11-04T14:53:33.189Z,95746.50
2022-11-04T14:56:16.655Z,95746.63
2022-11-04T14:58:57.656Z,95757.47
2022-11-04T15:01:34.212Z,95755.94
2022-11-04T15:04:12.186Z,95765.78
2022-11-04T15:06:54.453Z,95774.28
2022-11-04T15:09:30.310Z,95780.25
2022-11-04T15:12:24.608Z,95774.53
2022-11-04T15:14:52.550Z,95776.31
2022-11-04T15:17:24.338Z,95786.56
2022-11-04T15:19:54.696Z,95783.78
2022-11-04T15:22:23.298Z,95781.56
2022-11-04T15:24:51.712Z,95786.31
2022-11-04T15:27:31.021Z,95774.50
2022-11-04T15:30:01.408Z,95788.78
2022-11-04T15:32:31.447Z,95785.44
2022-11-04T15:35:00.604Z,95791.56
2022-11-04T15:37:31.214Z,95791.69
2022-11-04T15:40:00.009Z,95794.72
2022-11-04T15:42:42.993Z,95792.09
2022-11-04T15:45:33.446Z,95798.59
2022-11-04T15:48:28.671Z,95794.31
2022-11-04T15:51:16.472Z,95797.56
2022-11-04T15:53:54.577Z,95809.53
2022-11-04T15:56:25.977Z,95809.69
2022-11-04T15:58:55.716Z,95815.09
2022-11-04T16:01:24.384Z,95820.34
2022-11-04T16:03:56.489Z,95820.78
2022-11-04T16:06:36.293Z,95830.50
2022-11-04T16:09:08.188Z,95821.19
2022-11-04T16:11:36.756Z,95822.88
2022-11-04T16:14:23.807Z,95829.22
2022-11-04T16:16:54.324Z,95827.56
2022-11-04T16:19:27.262Z,95831.59
2022-11-04T16:22:01.281Z,95824.41
2022-11-04T16:24:32.848Z,95832.00
2022-11-04T16:27:01.241Z,95829.91
2022-11-04T16:29:31.195Z,95837.97
2022-11-04T16:32:27.738Z,95839.63
2022-11-04T16:34:59.062Z,95849.47
2022-11-04T16:37:27.458Z,95850.06
2022-11-04T16:39:55.497Z,95851.97
2022-11-04T16:42:24.080Z,95854.63
2022-11-04T16:44:56.053Z,95854.63
2022-11-04T16:47:25.882Z,95857.25
2022-11-04T16:49:53.797Z,95852.50
2022-11-04T16:52:26.578Z,95863.03
2022-11-04T16:54:56.633Z,95865.56
2022-11-04T16:57:25.572Z,95873.34
2022-11-04T16:59:53.462Z,95886.63
2022-11-04T17:02:30.810Z,95890.25
2022-11-04T17:04:59.167Z,95889.00
2022-11-04T17:07:47.254Z,95890.09
2022-11-04T17:10:18.682Z,95904.97
2022-11-04T17:12:47.533Z,95895.53
2022-11-04T17:15:16.911Z,95894.41
2022-11-04T17:17:45.163Z,95902.56
2022-11-04T17:20:17.569Z,95906.88
2022-11-04T17:22:48.997Z,95910.47
2022-11-04T17:25:20.082Z,95920.31
2022-11-04T17:27:48.226Z,95922.94
2022-11-04T17:30:17.829Z,95920.44
2022-11-04T17:32:46.658Z,95922.09
2022-11-04T17:35:15.177Z,95919.47
2022-11-04T17:37:43.457Z,95936.13
2022-11-04T17:40:18.092Z,95933.75
2022-11-04T17:43:10.107Z,95940.56
2022-11-04T17:45:40.355Z,95939.63
2022-11-04T17:48:09.056Z,95944.88
2022-11-04T17:50:39.455Z,95944.88
2022-11-04T17:53:07.896Z,95949.19
2022-11-04T17:55:41.014Z,95948.34
2022-11-04T17:58:08.978Z,95948.47
2022-11-04T18:00:36.916Z,95954.72
2022-11-04T18:03:06.785Z,95962.47
2022-11-04T18:05:35.015Z,95964.28
2022-11-04T18:08:02.951Z,95971.34
2022-11-04T18:10:30.869Z,95971.25
2022-11-04T18:13:00.345Z,95975.66
2022-11-04T18:15:28.434Z,95974.81
2022-11-04T18:17:57.252Z,95977.44
2022-11-04T18:20:25.290Z,95983.44
2022-11-04T18:22:53.338Z,95994.25
2022-11-04T18:25:21.232Z,95995.66
2022-11-04T18:27:49.469Z,95994.09
2022-11-04T18:30:18.914Z,95993.16
2022-11-04T18:32:46.984Z,95995.78
2022-11-04T18:35:14.911Z,95993.16
2022-11-04T18:37:47.072Z,96000.34
2022-11-04T18:40:18.636Z,96008.25
2022-11-04T18:42:47.164Z,96005.63
2022-11-04T18:45:17.492Z,96010.16
2022-11-04T18:47:49.781Z,96007.41
2022-11-04T18:50:20.854Z,96008.38
2022-11-04T18:52:48.854Z,96016.41
2022-11-04T18:55:16.874Z,96011.97
2022-11-04T18:57:45.609Z,96021.69
2022-11-04T19:00:17.177Z,96021.69
2022-11-04T19:02:45.581Z,96028.88
2022-11-04T19:05:19.429Z,96035.94
2022-11-04T19:07:49.770Z,96027.78
2022-11-04T19:10:17.779Z,96030.53
2022-11-04T19:13:03.144Z,96031.38
2022-11-04T19:15:35.234Z,96038.44
2022-11-04T19:18:03.253Z,96047.59
2022-11-04T19:20:33.486Z,96042.31
2022-11-04T19:23:01.718Z,96050.22
2022-11-04T19:25:30.654Z,96059.19
2022-11-04T19:28:26.673Z,96061.59
2022-11-04T19:30:47.547Z,96063.50
2022-11-04T19:33:15.502Z,96070.59
2022-11-04T19:35:46.574Z,96078.34
2022-11-04T19:38:14.519Z,96081.94
2022-11-04T19:40:42.426Z,96079.44
2022-11-04T19:43:09.364Z,96082.06
2022-11-04T19:45:40.325Z,96089.97
2022-11-04T19:48:09.460Z,96089.25
2022-11-04T19:50:42.992Z,96094.66
2022-11-04T19:53:12.741Z,96096.34
2022-11-04T19:55:40.758Z,96098.38
2022-11-04T19:58:08.928Z,96112.50
2022-11-04T20:00:37.076Z,96116.13
2022-11-04T20:03:05.475Z,96115.41
2022-11-04T20:05:37.934Z,96120.31
2022-11-04T20:08:06.641Z,96119.69
2022-11-04T20:10:39.347Z,96125.81
2022-11-04T20:13:25.297Z,96127.47
2022-11-04T20:15:53.264Z,96125.94
2022-11-04T20:18:21.164Z,96119.09
2022-11-04T20:20:49.244Z,96126.00
2022-11-04T20:23:17.262Z,96129.63
2022-11-04T20:25:46.855Z,96131.78
2022-11-04T20:28:14.868Z,96142.31
2022-11-04T20:30:43.217Z,96143.16
2022-11-04T20:33:11.171Z,96151.31
2022-11-04T20:35:39.668Z,96158.97
2022-11-04T20:38:07.825Z,96163.50
2022-11-04T20:40:36.486Z,96168.78
2022-11-04T20:43:05.920Z,96164.50
2022-11-04T20:45:34.644Z,96175.13
2022-11-04T20:48:02.604Z,96176.94
2022-11-04T20:50:30.604Z,96178.34
2022-11-04T20:52:58.466Z,96181.94
2022-11-04T20:55:27.882Z,96184.69
2022-11-04T20:57:55.741Z,96186.50
2022-11-04T21:00:24.998Z,96187.34
2022-11-04T21:02:53.120Z,96183.97
2022-11-04T21:05:21.079Z,96187.47
2022-11-04T21:07:49.071Z,96182.44
2022-11-04T21:10:17.236Z,96190.09
2022-11-04T21:12:45.189Z,96197.28
2022-11-04T21:15:34.357Z,96197.41
2022-11-04T21:18:03.571Z,96208.03
2022-11-04T21:20:31.557Z,96204.81
2022-11-04T21:22:59.455Z,96209.97
2022-11-04T21:25:27.393Z,96208.03
2022-11-04T21:27:56.308Z,96208.19
2022-11-04T21:30:28.973Z,96202.66
2022-11-04T21:33:17.756Z,96206.03
2022-11-04T21:35:48.000Z,96212.38
2022-11-04T21:38:17.449Z,96210.47
2022-11-04T21:40:46.430Z,96215.72
2022-11-04T21:43:14.702Z,96212.25
2022-11-04T21:45:42.737Z,96219.44
2022-11-04T21:48:11.009Z,96221.81
2022-11-04T21:50:40.609Z,96223.72
2022-11-04T21:53:08.784Z,96217.38
2022-11-04T21:55:36.680Z,96224.47
2022-11-04T21:58:04.633Z,96230.69
2022-11-04T22:00:32.537Z,96237.72
2022-11-04T22:03:00.459Z,96237.63
2022-11-04T22:05:28.387Z,96242.91
2022-11-04T22:08:15.131Z,96240.25
2022-11-04T22:10:43.061Z,96244.81
2022-11-04T22:13:11.314Z,96248.41
2022-11-04T22:15:56.747Z,96251.88
2022-11-04T22:18:24.703Z,96253.78
2022-11-04T22:20:53.048Z,96257.97
2022-11-04T22:23:22.718Z,96254.41
2022-11-04T22:25:50.663Z,96247.34
2022-11-04T22:28:19.361Z,96247.34
2022-11-04T22:30:47.313Z,96249.00
2022-11-04T22:33:15.337Z,96249.00
2022-11-04T22:35:46.996Z,96251.78
2022-11-04T22:38:15.013Z,96250.56
2022-11-04T22:40:44.392Z,96253.31
2022-11-04T22:43:12.640Z,96249.81
2022-11-04T22:45:40.750Z,96255.97
2022-11-04T22:48:08.705Z,96259.53
2022-11-04T22:50:37.011Z,96256.06
2022-11-04T22:53:05.474Z,96271.03
2022-11-04T22:55:33.413Z,96264.22
2022-11-04T22:58:03.452Z,96268.63
2022-11-04T23:00:31.889Z,96269.47
2022-11-04T23:03:00.023Z,96273.88
2022-11-04T23:05:28.682Z,96272.22
2022-11-04T23:07:56.830Z,96273.88
2022-11-04T23:10:41.991Z,96272.22
2022-11-04T23:13:28.917Z,96269.47
2022-11-04T23:16:14.863Z,96272.34
2022-11-04T23:18:42.769Z,96275.69
2022-11-04T23:21:29.293Z,96282.03
2022-11-04T23:24:14.447Z,96283.59
2022-11-04T23:26:45.274Z,96288.13
2022-11-04T23:29:32.449Z,96283.84
2022-11-04T23:32:00.401Z,96283.94
2022-11-04T23:34:45.906Z,96286.56
2022-11-04T23:37:14.426Z,96286.81
2022-11-04T23:39:44.217Z,96283.47
2022-11-04T23:42:19.566Z,96279.88
2022-11-04T23:45:08.275Z,96287.78
2022-11-04T23:47:56.029Z,96290.41
2022-11-04T23:50:42.200Z,96290.41
2022-11-04T23:53:30.579Z,96290.41
2022-11-04T23:56:16.180Z,96301.78
2022-11-04T23:59:06.723Z,96293.16
